createdAt,value
2023-02-04T00:00:17.179Z,100527.23
2023-02-04T00:03:13.498Z,100549.30
2023-02-04T00:05:52.983Z,100566.39
2023-02-04T00:08:37.565Z,100587.61
2023-02-04T00:11:26.347Z,100604.63
2023-02-04T00:14:30.249Z,100631.25
2023-02-04T00:17:10.530Z,100645.95
2023-02-04T00:20:09.191Z,100667.71
2023-02-04T00:22:59.392Z,100678.26
2023-02-04T00:25:28.396Z,100699.10
2023-02-04T00:28:04.553Z,100717.41
2023-02-04T00:30:40.786Z,100729.55
2023-02-04T00:33:11.158Z,100743.37
2023-02-04T00:36:01.643Z,100754.80
2023-02-04T00:38:34.790Z,100772.57
2023-02-04T00:41:03.078Z,100809.66
2023-02-04T00:43:34.458Z,100811.09
2023-02-04T00:46:13.760Z,100832.44
2023-02-04T00:48:44.820Z,100853.61
2023-02-04T00:51:15.804Z,100876.13
2023-02-04T00:53:49.048Z,100882.52
2023-02-04T00:56:26.276Z,100900.15
2023-02-04T00:58:54.578Z,100921.95
2023-02-04T01:01:22.822Z,100926.56
2023-02-04T01:03:51.135Z,100945.73
2023-02-04T01:06:33.133Z,100959.40
2023-02-04T01:09:26.321Z,100973.75
2023-02-04T01:12:46.254Z,100988.63
2023-02-04T01:15:48.236Z,101008.23
2023-02-04T01:19:00.462Z,101019.90
2023-02-04T01:21:53.517Z,101043.28
2023-02-04T01:24:49.680Z,101061.81
2023-02-04T01:28:16.974Z,101069.67
2023-02-04T01:32:06.021Z,101095.14
2023-02-04T01:46:38.707Z,101181.90
2023-02-04T01:50:03.444Z,101197.34
2023-02-04T01:53:30.575Z,101213.29
2023-02-04T01:56:58.996Z,101227.20
2023-02-04T02:00:47.302Z,101246.03
2023-02-04T02:32:56.817Z,101383.62
2023-02-04T02:36:46.253Z,101398.66
2023-02-04T02:48:05.114Z,101463.13
2023-02-04T02:50:54.136Z,101471.50
2023-02-04T02:53:44.976Z,101483.39
2023-02-04T02:57:08.718Z,101493.90
2023-02-04T03:00:26.357Z,101507.10
2023-02-04T03:03:37.807Z,101524.20
2023-02-04T03:07:08.821Z,101537.43
2023-02-04T03:10:24.167Z,101551.92
2023-02-04T03:13:37.946Z,101565.14
2023-02-04T03:17:25.341Z,101579.39
2023-02-04T03:46:36.127Z,101703.56
2023-02-04T03:50:05.798Z,101714.83
2023-02-04T03:53:33.946Z,101724.66
2023-02-04T04:12:58.234Z,101788.63
2023-02-04T04:16:09.262Z,101798.73
2023-02-04T04:19:50.963Z,101805.62
2023-02-04T04:36:26.700Z,101834.63
2023-02-04T04:38:59.934Z,101844.02
2023-02-04T04:41:31.063Z,101842.42
2023-02-04T04:45:19.912Z,101850.89
2023-02-04T04:48:09.453Z,101861.39
2023-02-04T04:51:37.051Z,101872.45
2023-02-04T04:54:11.071Z,101881.69
2023-02-04T04:57:01.887Z,101889.38
2023-02-04T05:00:23.576Z,101891.45
2023-02-04T05:03:50.914Z,101897.13
2023-02-04T05:06:37.497Z,101905.14
2023-02-04T05:09:38.570Z,101912.05
2023-02-04T05:13:15.904Z,101922.48
2023-02-04T05:16:09.963Z,101936.13
2023-02-04T05:18:59.947Z,101949.91
2023-02-04T05:22:02.033Z,101962.88
2023-02-04T05:25:06.531Z,101969.67
2023-02-04T05:28:44.222Z,101980.30
2023-02-04T05:36:06.750Z,102009.66
2023-02-04T05:39:55.958Z,102024.21
2023-02-04T05:43:45.015Z,102024.81
2023-02-04T05:54:28.393Z,102054.67
2023-02-04T05:56:56.384Z,102055.33
2023-02-04T05:59:24.759Z,102060.16
2023-02-04T06:01:52.533Z,102068.30
2023-02-04T06:04:20.496Z,102075.20
2023-02-04T06:06:48.608Z,102082.36
2023-02-04T06:09:16.306Z,102088.27
2023-02-04T06:11:44.248Z,102087.88
2023-02-04T06:14:12.158Z,102093.95
2023-02-04T06:16:39.951Z,102102.31
2023-02-04T06:19:08.262Z,102113.03
2023-02-04T06:21:36.065Z,102119.17
2023-02-04T06:24:05.445Z,102120.59
2023-02-04T06:26:33.696Z,102130.74
2023-02-04T06:29:02.047Z,102142.65
2023-02-04T06:31:30.120Z,102158.02
2023-02-04T06:33:58.321Z,102162.77
2023-02-04T06:36:26.230Z,102172.92
2023-02-04T06:38:54.647Z,102181.19
2023-02-04T06:41:22.423Z,102182.92
2023-02-04T06:43:50.340Z,102185.08
2023-02-04T06:46:18.317Z,102187.27
2023-02-04T06:48:46.166Z,102194.00
2023-02-04T06:51:14.121Z,102202.23
2023-02-04T06:53:44.252Z,102204.34
2023-02-04T06:56:12.573Z,102205.60
2023-02-04T06:58:40.384Z,102209.25
2023-02-04T07:01:08.405Z,102215.55
2023-02-04T07:03:36.486Z,102223.77
2023-02-04T07:06:04.327Z,102224.79
2023-02-04T07:08:32.180Z,102230.25
2023-02-04T07:11:00.396Z,102235.19
2023-02-04T07:13:28.279Z,102238.73
2023-02-04T07:15:56.335Z,102245.52
2023-02-04T07:18:24.348Z,102252.18
2023-02-04T07:20:52.230Z,102256.39
2023-02-04T07:23:20.294Z,102264.88
2023-02-04T07:25:49.195Z,102269.70
2023-02-04T07:28:17.200Z,102277.83
2023-02-04T07:30:45.200Z,102286.59
2023-02-04T07:33:13.203Z,102295.31
2023-02-04T07:35:41.234Z,102293.13
2023-02-04T07:38:09.065Z,102297.28
2023-02-04T07:40:37.084Z,102303.95
2023-02-04T07:43:05.050Z,102306.02
2023-02-04T07:45:34.314Z,102302.16
2023-02-04T07:48:02.063Z,102311.13
2023-02-04T07:50:30.568Z,102318.05
2023-02-04T07:52:58.863Z,102324.65
2023-02-04T07:55:26.788Z,102331.37
2023-02-04T07:57:54.872Z,102334.08
2023-02-04T08:00:22.792Z,102337.92
2023-02-04T08:02:51.293Z,102345.12
2023-02-04T08:05:19.219Z,102346.47
2023-02-04T08:07:46.939Z,102345.53
2023-02-04T08:10:14.991Z,102345.33
2023-02-04T08:12:42.821Z,102347.44
2023-02-04T08:15:10.654Z,102337.36
2023-02-04T08:17:38.520Z,102342.42
2023-02-04T08:20:06.792Z,102343.08
2023-02-04T08:22:35.287Z,102346.94
2023-02-04T08:25:05.377Z,102354.98
2023-02-04T08:27:33.358Z,102362.85
2023-02-04T08:30:01.540Z,102364.16
2023-02-04T08:32:31.192Z,102372.20
2023-02-04T08:34:59.409Z,102375.80
2023-02-04T08:37:28.031Z,102382.98
2023-02-04T08:39:56.317Z,102387.41
2023-02-04T08:42:24.229Z,102390.05
2023-02-04T08:44:52.228Z,102396.16
2023-02-04T08:47:20.027Z,102400.65
2023-02-04T08:49:47.936Z,102404.61
2023-02-04T08:52:15.795Z,102407.41
2023-02-04T08:54:43.514Z,102413.05
2023-02-04T08:57:11.486Z,102415.02
2023-02-04T08:59:39.428Z,102415.39
2023-02-04T09:02:07.392Z,102422.13
2023-02-04T09:04:35.191Z,102420.86
2023-02-04T09:07:03.550Z,102421.12
2023-02-04T09:09:31.442Z,102425.75
2023-02-04T09:11:59.511Z,102428.30
2023-02-04T09:14:27.816Z,102433.68
2023-02-04T09:16:55.734Z,102433.36
2023-02-04T09:19:26.529Z,102436.08
2023-02-04T09:21:55.240Z,102438.64
2023-02-04T09:24:23.783Z,102445.32
2023-02-04T09:26:51.514Z,102445.71
2023-02-04T09:29:19.509Z,102451.52
2023-02-04T09:31:47.677Z,102452.81
2023-02-04T09:34:15.815Z,102453.71
2023-02-04T09:36:43.962Z,102452.56
2023-02-04T09:39:12.263Z,102463.50
2023-02-04T09:41:41.271Z,102469.23
2023-02-04T09:44:16.677Z,102470.27
2023-02-04T09:46:51.625Z,102468.63
2023-02-04T09:49:19.864Z,102476.21
2023-02-04T09:51:49.158Z,102472.77
2023-02-04T09:54:20.223Z,102472.46
2023-02-04T09:56:49.019Z,102476.09
2023-02-04T09:59:20.607Z,102478.61
2023-02-04T10:02:37.773Z,102477.35
2023-02-04T10:05:07.106Z,102477.81
2023-02-04T10:07:35.399Z,102479.02
2023-02-04T10:10:03.588Z,102485.80
2023-02-04T10:12:32.221Z,102488.70
2023-02-04T10:15:00.633Z,102485.95
2023-02-04T10:17:28.613Z,102489.93
2023-02-04T10:19:56.389Z,102494.09
2023-02-04T10:22:24.248Z,102487.73
2023-02-04T10:24:52.218Z,102489.56
2023-02-04T10:27:20.273Z,102501.55
2023-02-04T10:29:58.625Z,102507.67
2023-02-04T10:32:32.564Z,102510.36
2023-02-04T10:35:02.741Z,102512.35
2023-02-04T10:37:32.195Z,102509.23
2023-02-04T10:40:00.433Z,102509.22
2023-02-04T10:42:30.939Z,102518.95
2023-02-04T10:44:59.462Z,102519.37
2023-02-04T10:47:31.332Z,102514.90
2023-02-04T10:50:07.696Z,102520.86
2023-02-04T10:52:39.827Z,102524.93
2023-02-04T10:55:13.593Z,102523.48
2023-02-04T10:57:43.182Z,102525.08
2023-02-04T11:00:31.954Z,102528.51
2023-02-04T11:03:22.960Z,102531.20
2023-02-04T11:05:52.346Z,102527.79
2023-02-04T11:08:24.188Z,102534.55
2023-02-04T11:10:59.028Z,102536.97
2023-02-04T11:13:43.332Z,102551.65
2023-02-04T11:16:13.239Z,102547.17
2023-02-04T11:18:49.140Z,102538.96
2023-02-04T11:21:28.151Z,102549.96
2023-02-04T11:24:11.642Z,102546.74
2023-02-04T11:26:49.546Z,102551.85
2023-02-04T11:29:25.297Z,102565.77
2023-02-04T11:31:59.622Z,102566.52
2023-02-04T11:34:30.136Z,102570.42
2023-02-04T11:37:12.440Z,102565.91
2023-02-04T11:39:44.421Z,102566.36
2023-02-04T11:42:41.092Z,102561.81
2023-02-04T11:45:20.401Z,102560.05
2023-02-04T11:47:48.479Z,102565.08
2023-02-04T11:50:21.726Z,102561.34
2023-02-04T11:52:49.612Z,102562.89
2023-02-04T11:55:19.343Z,102568.52
2023-02-04T11:57:52.615Z,102564.52
2023-02-04T12:00:23.911Z,102574.10
2023-02-04T12:03:06.347Z,102573.80
2023-02-04T12:05:43.982Z,102574.49
2023-02-04T12:08:22.494Z,102578.05
2023-02-04T12:11:00.620Z,102575.64
2023-02-04T12:13:30.984Z,102575.09
2023-02-04T12:16:07.443Z,102576.61
2023-02-04T12:18:35.561Z,102580.14
2023-02-04T12:21:04.464Z,102581.72
2023-02-04T12:23:33.048Z,102580.00
2023-02-04T12:26:00.991Z,102583.65
2023-02-04T12:28:29.178Z,102587.21
2023-02-04T12:30:57.484Z,102589.84
2023-02-04T12:33:25.555Z,102591.98
2023-02-04T12:35:53.717Z,102590.05
2023-02-04T12:38:21.647Z,102589.48
2023-02-04T12:40:49.506Z,102599.05
2023-02-04T12:43:17.333Z,102592.73
2023-02-04T12:45:45.861Z,102605.66
2023-02-04T12:48:14.276Z,102603.31
2023-02-04T12:50:42.305Z,102609.73
2023-02-04T12:53:10.601Z,102620.54
2023-02-04T12:55:38.546Z,102622.56
2023-02-04T12:58:06.348Z,102619.99
2023-02-04T13:00:34.426Z,102629.63
2023-02-04T13:03:02.599Z,102628.60
2023-02-04T13:05:31.674Z,102630.67
2023-02-04T13:07:59.852Z,102635.59
2023-02-04T13:10:27.866Z,102641.70
2023-02-04T13:12:55.856Z,102641.77
2023-02-04T13:15:23.833Z,102639.50
2023-02-04T13:17:52.368Z,102636.18
2023-02-04T13:20:20.456Z,102639.51
2023-02-04T13:22:48.371Z,102643.19
2023-02-04T13:25:16.317Z,102643.41
2023-02-04T13:27:44.374Z,102639.81
2023-02-04T13:30:15.154Z,102643.53
2023-02-04T13:32:43.661Z,102643.88
2023-02-04T13:35:12.060Z,102639.66
2023-02-04T13:37:40.025Z,102638.80
2023-02-04T13:40:09.599Z,102640.05
2023-02-04T13:42:37.593Z,102637.20
2023-02-04T13:45:07.866Z,102640.95
2023-02-04T13:47:35.800Z,102644.39
2023-02-04T13:50:04.125Z,102643.77
2023-02-04T13:52:33.639Z,102645.52
2023-02-04T13:55:01.745Z,102650.56
2023-02-04T13:57:31.036Z,102651.43
2023-02-04T13:59:59.396Z,102649.69
2023-02-04T14:02:27.466Z,102653.95
2023-02-04T14:04:55.339Z,102652.89
2023-02-04T14:07:23.343Z,102654.91
2023-02-04T14:09:51.190Z,102653.73
2023-02-04T14:12:19.015Z,102652.27
2023-02-04T14:14:46.852Z,102652.77
2023-02-04T14:17:14.822Z,102654.52
2023-02-04T14:19:42.685Z,102657.41
2023-02-04T14:22:12.909Z,102656.48
2023-02-04T14:24:42.905Z,102653.27
2023-02-04T14:27:11.421Z,102657.48
2023-02-04T14:29:39.312Z,102658.31
2023-02-04T14:32:07.420Z,102664.49
2023-02-04T14:34:35.390Z,102674.52
2023-02-04T14:37:03.443Z,102675.09
2023-02-04T14:39:31.395Z,102671.98
2023-02-04T14:41:59.238Z,102666.96
2023-02-04T14:44:27.242Z,102671.49
2023-02-04T14:46:55.228Z,102674.37
2023-02-04T14:49:23.105Z,102676.50
2023-02-04T14:51:51.166Z,102677.52
2023-02-04T14:54:18.982Z,102680.84
2023-02-04T14:56:48.000Z,102679.00
2023-02-04T14:59:15.903Z,102683.48
2023-02-04T15:01:46.302Z,102691.80
2023-02-04T15:04:14.357Z,102685.64
2023-02-04T15:06:42.250Z,102685.73
2023-02-04T15:09:10.202Z,102690.81
2023-02-04T15:11:38.181Z,102697.50
2023-02-04T15:14:06.227Z,102699.27
2023-02-04T15:16:34.226Z,102698.97
2023-02-04T15:19:02.193Z,102708.02
2023-02-04T15:21:30.272Z,102706.98
2023-02-04T15:23:58.222Z,102711.36
2023-02-04T15:26:26.076Z,102709.80
2023-02-04T15:28:55.773Z,102710.45
2023-02-04T15:31:26.052Z,102715.16
2023-02-04T15:33:54.060Z,102715.28
2023-02-04T15:36:21.974Z,102712.98
2023-02-04T15:38:49.969Z,102720.46
2023-02-04T15:41:18.068Z,102727.94
2023-02-04T15:43:48.929Z,102728.63
2023-02-04T15:46:16.950Z,102736.48
2023-02-04T15:48:45.028Z,102744.98
2023-02-04T15:51:13.024Z,102753.02
2023-02-04T15:53:41.060Z,102756.05
2023-02-04T15:56:08.904Z,102756.45
2023-02-04T15:58:36.903Z,102763.70
2023-02-04T16:01:05.148Z,102771.04
2023-02-04T16:03:33.214Z,102776.56
2023-02-04T16:06:01.094Z,102776.02
2023-02-04T16:08:29.120Z,102778.21
2023-02-04T16:10:57.233Z,102783.78
2023-02-04T16:13:25.172Z,102781.77
2023-02-04T16:15:53.129Z,102782.91
2023-02-04T16:18:21.046Z,102789.89
2023-02-04T16:20:48.943Z,102794.22
2023-02-04T16:23:17.004Z,102798.45
2023-02-04T16:25:44.919Z,102801.77
2023-02-04T16:28:13.118Z,102802.02
2023-02-04T16:30:41.185Z,102804.69
2023-02-04T16:33:09.510Z,102811.29
2023-02-04T16:35:59.925Z,102809.36
2023-02-04T16:38:29.446Z,102810.17
2023-02-04T16:40:58.361Z,102818.13
2023-02-04T16:43:26.580Z,102821.33
2023-02-04T16:45:54.442Z,102818.71
2023-02-04T16:48:22.651Z,102822.37
2023-02-04T16:50:50.480Z,102824.23
2023-02-04T16:53:18.449Z,102829.40
2023-02-04T16:55:48.085Z,102833.77
2023-02-04T16:58:16.507Z,102827.62
2023-02-04T17:00:44.896Z,102825.42
2023-02-04T17:03:13.689Z,102828.98
2023-02-04T17:05:42.282Z,102829.36
2023-02-04T17:08:13.161Z,102828.56
2023-02-04T17:11:00.368Z,102828.05
2023-02-04T17:13:28.422Z,102823.73
2023-02-04T17:16:01.079Z,102833.77
2023-02-04T17:18:30.997Z,102836.77
2023-02-04T17:20:59.630Z,102842.77
2023-02-04T17:23:28.430Z,102848.44
2023-02-04T17:25:56.602Z,102849.08
2023-02-04T17:28:24.547Z,102860.48
2023-02-04T17:30:52.612Z,102862.67
2023-02-04T17:33:21.090Z,102865.83
2023-02-04T17:35:49.158Z,102864.14
2023-02-04T17:38:16.988Z,102866.59
2023-02-04T17:40:46.617Z,102870.89
2023-02-04T17:43:14.468Z,102873.52
2023-02-04T17:45:42.939Z,102874.98
2023-02-04T17:48:11.052Z,102876.10
2023-02-04T17:50:40.271Z,102876.77
2023-02-04T17:53:10.708Z,102879.47
2023-02-04T17:55:39.837Z,102879.36
2023-02-04T17:58:36.260Z,102877.45
2023-02-04T18:01:11.780Z,102878.42
2023-02-04T18:03:42.743Z,102876.21
2023-02-04T18:06:17.763Z,102882.11
2023-02-04T18:08:45.883Z,102880.92
2023-02-04T18:11:27.704Z,102882.86
2023-02-04T18:14:12.622Z,102878.27
2023-02-04T18:16:41.609Z,102876.89
2023-02-04T18:19:19.330Z,102882.98
2023-02-04T18:21:49.056Z,102881.68
2023-02-04T18:24:27.130Z,102882.48
2023-02-04T18:26:59.195Z,102884.75
2023-02-04T18:29:26.910Z,102891.95
2023-02-04T18:32:01.752Z,102885.69
2023-02-04T18:34:38.830Z,102889.57
2023-02-04T18:37:29.533Z,102891.89
2023-02-04T18:40:22.409Z,102892.25
2023-02-04T18:42:55.522Z,102899.09
2023-02-04T18:45:33.226Z,102900.37
2023-02-04T18:48:19.753Z,102898.58
2023-02-04T18:50:51.566Z,102902.16
2023-02-04T18:53:24.374Z,102899.61
2023-02-04T18:56:00.597Z,102898.49
2023-02-04T18:58:42.885Z,102895.83
2023-02-04T19:01:10.849Z,102891.00
2023-02-04T19:04:06.086Z,102894.96
2023-02-04T19:06:40.087Z,102893.59
2023-02-04T19:09:11.076Z,102901.08
2023-02-04T19:11:43.038Z,102894.79
2023-02-04T19:14:14.454Z,102895.73
2023-02-04T19:16:42.673Z,102893.70
2023-02-04T19:19:31.868Z,102897.80
2023-02-04T19:21:59.639Z,102900.23
2023-02-04T19:24:29.490Z,102901.91
2023-02-04T19:27:00.138Z,102906.18
2023-02-04T19:29:41.752Z,102908.38
2023-02-04T19:32:31.433Z,102909.77
2023-02-04T19:35:08.082Z,102911.52
2023-02-04T19:37:41.374Z,102917.25
2023-02-04T19:40:35.580Z,102916.03
2023-02-04T19:43:16.130Z,102920.45
2023-02-04T19:45:46.000Z,102921.02
2023-02-04T19:48:21.808Z,102927.95
2023-02-04T19:50:54.003Z,102926.61
2023-02-04T19:53:29.451Z,102926.10
2023-02-04T19:55:57.608Z,102931.36
2023-02-04T19:58:41.819Z,102928.89
2023-02-04T20:01:14.504Z,102925.35
2023-02-04T20:03:48.144Z,102923.21
2023-02-04T20:06:30.948Z,102919.98
2023-02-04T20:09:14.087Z,102915.48
2023-02-04T20:12:06.366Z,102916.92
2023-02-04T20:14:52.094Z,102917.44
2023-02-04T20:17:43.107Z,102920.08
2023-02-04T20:20:18.545Z,102922.02
2023-02-04T20:22:57.021Z,102923.47
2023-02-04T20:25:48.228Z,102923.40
2023-02-04T20:28:34.447Z,102924.94
2023-02-04T20:31:04.486Z,102923.84
2023-02-04T20:33:43.391Z,102930.15
2023-02-04T20:36:28.300Z,102931.71
2023-02-04T20:39:17.248Z,102936.48
2023-02-04T20:41:45.329Z,102939.69
2023-02-04T20:44:18.808Z,102941.98
2023-02-04T20:46:46.894Z,102942.41
2023-02-04T20:49:23.247Z,102937.95
2023-02-04T20:51:56.252Z,102944.42
2023-02-04T20:54:24.145Z,102945.55
2023-02-04T20:56:51.960Z,102946.45
2023-02-04T20:59:34.019Z,102946.96
2023-02-04T21:02:14.265Z,102948.13
2023-02-04T21:04:47.120Z,102950.33
2023-02-04T21:07:20.424Z,102948.70
2023-02-04T21:09:49.356Z,102947.03
2023-02-04T21:12:17.500Z,102950.15
2023-02-04T21:14:45.621Z,102955.62
2023-02-04T21:17:13.570Z,102957.58
2023-02-04T21:19:41.567Z,102963.27
2023-02-04T21:22:09.533Z,102964.70
2023-02-04T21:24:37.424Z,102964.21
2023-02-04T21:27:05.282Z,102966.36
2023-02-04T21:29:33.231Z,102966.71
2023-02-04T21:32:01.127Z,102967.79
2023-02-04T21:34:29.117Z,102971.48
2023-02-04T21:36:57.151Z,102967.02
2023-02-04T21:39:25.232Z,102971.20
2023-02-04T21:42:10.200Z,102971.46
2023-02-04T21:44:40.235Z,102970.13
2023-02-04T21:47:08.112Z,102976.66
2023-02-04T21:49:39.483Z,102973.10
2023-02-04T21:52:08.714Z,102974.77
2023-02-04T21:54:36.704Z,102968.23
2023-02-04T21:57:05.276Z,102975.11
2023-02-04T21:59:33.734Z,102980.41
2023-02-04T22:02:01.928Z,102987.23
2023-02-04T22:04:29.971Z,102993.46
2023-02-04T22:06:57.970Z,102988.92
2023-02-04T22:09:25.903Z,102991.92
2023-02-04T22:11:53.863Z,102998.58
2023-02-04T22:14:40.314Z,102995.73
2023-02-04T22:17:08.288Z,102989.98
2023-02-04T22:19:36.740Z,102991.05
2023-02-04T22:22:04.688Z,102990.21
2023-02-04T22:24:32.796Z,102987.34
2023-02-04T22:27:00.608Z,102987.45
2023-02-04T22:29:33.511Z,102991.69
2023-02-04T22:32:01.407Z,102991.20
2023-02-04T22:34:29.578Z,102988.65
2023-02-04T22:36:58.012Z,102994.60
2023-02-04T22:39:25.849Z,103001.95
2023-02-04T22:41:54.096Z,103006.42
2023-02-04T22:44:21.987Z,103010.66
2023-02-04T22:46:49.778Z,103016.00
2023-02-04T22:49:17.722Z,103015.04
2023-02-04T22:51:45.634Z,103014.92
2023-02-04T22:54:13.714Z,103016.11
2023-02-04T22:56:41.548Z,103012.10
2023-02-04T22:59:09.453Z,103014.89
2023-02-04T23:01:37.467Z,103017.90
2023-02-04T23:04:05.390Z,103017.98
2023-02-04T23:06:33.882Z,103015.73
2023-02-04T23:09:01.835Z,103017.14
2023-02-04T23:11:29.963Z,103020.02
2023-02-04T23:13:57.831Z,103030.43
2023-02-04T23:16:25.833Z,103035.71
2023-02-04T23:18:53.916Z,103037.02
2023-02-04T23:21:23.066Z,103035.28
2023-02-04T23:23:52.321Z,103035.88
2023-02-04T23:26:21.111Z,103032.42
2023-02-04T23:28:49.322Z,103029.63
2023-02-04T23:31:17.375Z,103025.02
2023-02-04T23:33:45.141Z,103025.49
2023-02-04T23:36:13.190Z,103025.64
2023-02-04T23:38:41.304Z,103030.19
2023-02-04T23:41:09.332Z,103029.43
2023-02-04T23:43:37.251Z,103028.73
2023-02-04T23:46:05.396Z,103026.29
2023-02-04T23:48:33.277Z,103030.02
2023-02-04T23:51:01.165Z,103036.58
2023-02-04T23:53:29.195Z,103044.16
2023-02-04T23:55:57.155Z,103046.29
2023-02-04T23:58:25.077Z,103045.82
